Huvudsida
METAR-TAF:

METAR-TAF

Flygplatser :

Visakhapatnam Airport

Visakhapatnam, Indien

latitud: 17-43-16N, longitud: 83-13-28E, höjd: 6 m

Aktuellt väderrapport

Denna rapport gjordes för 48 minuter sedan, klockan 04:30 UTC
Vind 6 kt från syd/sydost
Temperatur 35°C
Fuktighet 50%
Tryck 1008 hPa
Sikt: 4500 m
Få moln på en höjd av 1800 ft
torrdis,

METAR: VOVZ 240430Z 16006KT 4500 HZ FEW018 35/23 Q1008 NOSIG

Tid: 10:48 (05:18 UTC)

Väderprognos

Denna rapport gjordes för 3 timmar och 18 minuter sedan, klockan 02:00 UTC
Prognos gäller från 24 kl. 03 UTC till 24 kl. 12 UTC
Vind 8 kt från syd/sydväst
Sikt: 5000 m
Få moln på en höjd av 1800 ft
Spridda moln på en höjd av 9000 ft
torrdis
Temporärt
från 24 kl. 08 UTC till 24 kl. 12 UTC
Vind 10 kt från väst/sydväst i byarna ända upp till 20 kt
Sikt: 6000 m
Få moln på en höjd av 1800 ft
Spridda moln på en höjd av 9000 ft

TAF: VOVZ 240200Z 2403/2412 21008KT 5000 HZ FEW018 SCT090 TEMPO 2408/2412 24010G20KT 6000 FEW018 FEW025TCU/CB SCT090

Aktuella väderrapporter och prognoser från 4000 flygplatser (METAR- och TAF-rapporter).

De tillgängliga stationerna syns som gula och röda prickar på kartan.

För musen över prickarna för att se namnen på stationerna.

Klicka sedan för att få väderrapporter och prognoser.

För att ändra kartan: Klicka på de gröna knapparna med ett svart kors på för att zooma in; den gröna knappen med ett streck på för att zooma ut; eller på de gröna pilarna för angränsande kartor.


METAR-TAF: